首页
METAR-TAF:

METAR-TAF

机场 :

聖何塞港, 危地马拉

纬度: 13-55N, 经度: 090-49W, 海拔: 2米

当前天气观测

该预报发布于3小时和8分钟前的00:00 UTC
静风
温度 28°C
湿度 58%
气压 1011 hPa
能見度: 9000
天空无云

METAR: MGSJ 230000Z 00000KT 9000 SKC 28/19 Q1011 A2985 FU

时间: 21:08 (03:08 UTC)

预报

该预报发布于3小时和38分钟前的23:30 UTC
预报有效从23日的 00点(UTC)到 23日的 24点(UTC)
风速节,风向
能见度10公里或以上
1500米以下无云,无积雨云
成为
从 23日的 14点(UTC)到 23日的 16点(UTC)
风速8节,风向
能見度: 8000
天空无云
成为
从 23日的 20点(UTC)到 23日的 22点(UTC)
散云层高于2000英尺

TAF: MGSJ 222330Z 2300/2324 00000KT CAVOK TX33/2320Z TN21/2312Z BECMG 2314/2316 18008KT 8000 SKC BECMG 2320/2322 SCT020

超过4000个机场的气象观测和天气预报(METAR&TAF报告)。

可查询的气象台以黄色和红色小点在地图上表示。

将鼠标移到小点上方,可查看气象台名称。

然后点击查看天气观测和预报。

如需切换地图:点击带黑十字的绿色按钮放大地图;点击带横线的绿色按钮缩小地图;或者点击绿色箭头查看邻近地区的地图。


METAR-TAF: